createdAt,value
2022-09-21T00:00:17.643Z,36.42
2022-09-21T00:00:49.282Z,36.62
2022-09-21T00:01:27.394Z,36.79
2022-09-21T00:01:58.973Z,36.76
2022-09-21T00:02:30.655Z,37.22
2022-09-21T00:03:02.144Z,37.23
2022-09-21T00:03:34.020Z,36.71
2022-09-21T00:04:05.650Z,36.54
2022-09-21T00:04:37.275Z,36.62
2022-09-21T00:05:08.954Z,36.44
2022-09-21T00:05:40.503Z,36.49
2022-09-21T00:06:13.029Z,36.55
2022-09-21T00:06:44.606Z,36.20
2022-09-21T00:07:16.105Z,35.93
2022-09-21T00:07:47.660Z,36.84
2022-09-21T00:08:19.219Z,36.51
2022-09-21T00:08:50.681Z,36.27
2022-09-21T00:09:22.146Z,36.70
2022-09-21T00:09:53.739Z,36.91
2022-09-21T00:10:25.217Z,36.76
2022-09-21T00:10:56.777Z,36.48
2022-09-21T00:11:28.879Z,36.40
2022-09-21T00:12:00.398Z,36.38
2022-09-21T00:12:31.917Z,36.60
2022-09-21T00:13:03.577Z,36.62
2022-09-21T00:13:35.148Z,36.46
2022-09-21T00:14:08.096Z,36.41
2022-09-21T00:14:39.661Z,36.49
2022-09-21T00:15:11.225Z,36.90
2022-09-21T00:15:43.020Z,36.55
2022-09-21T00:16:17.281Z,36.77
2022-09-21T00:16:48.868Z,36.70
2022-09-21T00:17:20.367Z,36.63
2022-09-21T00:17:55.218Z,36.48
2022-09-21T00:18:26.788Z,36.25
2022-09-21T00:18:58.406Z,36.65
2022-09-21T00:19:29.900Z,37.01
2022-09-21T00:20:01.699Z,36.56
2022-09-21T00:20:33.283Z,36.87
2022-09-21T00:21:08.405Z,36.59
2022-09-21T00:21:39.954Z,36.38
2022-09-21T00:22:11.529Z,36.44
2022-09-21T00:22:43.108Z,36.53
2022-09-21T00:23:14.747Z,36.68
2022-09-21T00:23:46.319Z,37.01
2022-09-21T00:24:17.870Z,36.76
2022-09-21T00:24:49.525Z,36.86
2022-09-21T00:25:21.066Z,36.80
2022-09-21T00:25:52.694Z,36.88
2022-09-21T00:26:25.078Z,36.58
2022-09-21T00:26:56.651Z,36.73
2022-09-21T00:27:28.192Z,36.66
2022-09-21T00:27:59.740Z,36.83
2022-09-21T00:28:31.279Z,36.69
2022-09-21T00:29:02.959Z,36.93
2022-09-21T00:29:34.542Z,36.63
2022-09-21T00:30:06.360Z,36.63
2022-09-21T00:30:37.976Z,37.00
2022-09-21T00:31:10.034Z,37.27
2022-09-21T00:31:41.603Z,36.78
2022-09-21T00:32:13.095Z,36.54
2022-09-21T00:32:44.677Z,36.68
2022-09-21T00:33:16.215Z,36.69
2022-09-21T00:33:47.800Z,36.88
2022-09-21T00:34:19.369Z,36.68
2022-09-21T00:34:51.435Z,36.54
2022-09-21T00:35:23.031Z,36.61
2022-09-21T00:35:54.579Z,36.83
2022-09-21T00:36:26.333Z,36.65
2022-09-21T00:36:58.066Z,36.33
2022-09-21T00:37:29.597Z,36.34
2022-09-21T00:38:01.792Z,36.25
2022-09-21T00:38:33.386Z,36.60
2022-09-21T00:39:04.892Z,36.37
2022-09-21T00:39:36.406Z,36.14
2022-09-21T00:40:08.153Z,36.55
2022-09-21T00:40:39.704Z,36.07
2022-09-21T00:41:11.314Z,36.50
2022-09-21T00:41:42.946Z,36.40
2022-09-21T00:42:21.551Z,36.47
2022-09-21T00:42:53.084Z,36.18
2022-09-21T00:43:24.669Z,36.52
2022-09-21T00:44:08.095Z,36.66
2022-09-21T00:44:39.599Z,37.03
2022-09-21T00:45:11.677Z,36.63
2022-09-21T00:45:43.369Z,36.38
2022-09-21T00:46:33.099Z,36.46
2022-09-21T00:47:06.738Z,36.94
2022-09-21T00:47:39.077Z,36.69
2022-09-21T00:48:10.616Z,36.51
2022-09-21T00:48:42.202Z,36.62
2022-09-21T00:49:13.739Z,37.38
2022-09-21T00:49:45.738Z,36.80
2022-09-21T00:50:18.042Z,37.24
2022-09-21T00:50:50.247Z,36.84
2022-09-21T00:51:21.802Z,37.13
2022-09-21T00:51:53.426Z,36.90
2022-09-21T00:52:25.111Z,37.01
2022-09-21T00:52:57.151Z,37.31
2022-09-21T00:53:28.834Z,36.79
2022-09-21T00:54:04.941Z,37.11
2022-09-21T00:54:38.229Z,36.89
2022-09-21T00:55:11.685Z,36.70
2022-09-21T00:55:44.079Z,36.95
2022-09-21T00:56:15.624Z,36.42
2022-09-21T00:56:47.167Z,36.59
2022-09-21T00:57:19.528Z,36.85
2022-09-21T00:57:53.011Z,36.54
2022-09-21T00:58:26.421Z,36.95
2022-09-21T00:58:58.040Z,36.59
2022-09-21T00:59:30.616Z,37.06
2022-09-21T01:00:02.665Z,37.29
2022-09-21T01:00:34.209Z,37.00
2022-09-21T01:01:05.827Z,36.97
2022-09-21T01:01:37.394Z,36.74
2022-09-21T01:02:09.074Z,36.71
2022-09-21T01:02:40.913Z,36.72
2022-09-21T01:03:12.726Z,36.91
2022-09-21T01:03:44.987Z,36.70
2022-09-21T01:04:16.510Z,36.54
2022-09-21T01:04:48.044Z,36.34
2022-09-21T01:05:19.660Z,36.34
2022-09-21T01:05:51.174Z,36.69
2022-09-21T01:06:22.676Z,36.68
2022-09-21T01:06:54.693Z,36.27
2022-09-21T01:07:27.126Z,36.73
2022-09-21T01:07:59.526Z,36.21
2022-09-21T01:08:31.128Z,36.90
2022-09-21T01:09:02.776Z,36.47
2022-09-21T01:09:34.310Z,36.49
2022-09-21T01:10:13.039Z,37.04
2022-09-21T01:10:44.614Z,36.60
2022-09-21T01:11:28.187Z,36.71
2022-09-21T01:12:14.898Z,36.83
2022-09-21T01:12:49.070Z,36.53
2022-09-21T01:13:20.572Z,36.62
2022-09-21T01:14:11.013Z,36.91
2022-09-21T01:15:01.438Z,36.83
2022-09-21T01:15:45.355Z,36.06
2022-09-21T01:16:19.055Z,36.69
2022-09-21T01:17:09.124Z,37.12
2022-09-21T01:17:50.738Z,37.01
2022-09-21T01:18:22.312Z,36.71
2022-09-21T01:18:59.060Z,36.58
2022-09-21T01:19:40.301Z,36.64
2022-09-21T01:20:20.101Z,36.46
2022-09-21T01:20:51.519Z,36.43
2022-09-21T01:21:25.314Z,36.88
2022-09-21T01:22:05.598Z,36.59
2022-09-21T01:22:42.796Z,36.52
2022-09-21T01:23:29.105Z,36.08
2022-09-21T01:24:18.990Z,36.98
2022-09-21T01:25:09.264Z,36.63
2022-09-21T01:25:49.714Z,36.45
2022-09-21T01:26:35.088Z,36.55
2022-09-21T01:27:24.549Z,36.78
2022-09-21T01:28:14.361Z,37.11
2022-09-21T01:29:06.977Z,36.65
2022-09-21T01:29:42.166Z,36.88
2022-09-21T01:30:15.917Z,37.05
2022-09-21T01:30:49.144Z,36.96
2022-09-21T01:31:22.235Z,37.44
2022-09-21T01:32:13.793Z,37.23
2022-09-21T01:32:57.437Z,36.96
2022-09-21T01:33:30.269Z,36.83
2022-09-21T01:34:02.500Z,37.07
2022-09-21T01:34:44.806Z,36.89
2022-09-21T01:35:20.434Z,36.46
2022-09-21T01:35:56.815Z,37.24
2022-09-21T01:36:28.641Z,36.71
2022-09-21T01:37:01.776Z,36.49
2022-09-21T01:37:38.221Z,36.56
2022-09-21T01:38:35.932Z,36.37
2022-09-21T01:39:08.603Z,36.55
2022-09-21T01:39:40.202Z,36.99
2022-09-21T01:40:13.270Z,36.67
2022-09-21T01:40:46.201Z,37.10
2022-09-21T01:41:19.959Z,36.40
2022-09-21T01:41:51.480Z,36.26
2022-09-21T01:42:23.102Z,36.47
2022-09-21T01:42:54.574Z,36.73
2022-09-21T01:43:31.402Z,36.70
2022-09-21T01:44:10.453Z,36.45
2022-09-21T01:44:41.968Z,37.07
2022-09-21T01:45:13.537Z,36.57
2022-09-21T01:45:45.980Z,36.74
2022-09-21T01:46:18.658Z,36.91
2022-09-21T01:46:50.164Z,36.77
2022-09-21T01:47:21.749Z,37.03
2022-09-21T01:47:53.369Z,36.47
2022-09-21T01:48:25.013Z,36.61
2022-09-21T01:48:58.152Z,36.38
2022-09-21T01:49:34.838Z,36.78
2022-09-21T01:50:06.647Z,36.82
2022-09-21T01:50:40.481Z,36.32
2022-09-21T01:51:12.518Z,36.33
2022-09-21T01:51:45.426Z,36.61
2022-09-21T01:52:25.016Z,36.13
2022-09-21T01:53:00.753Z,36.27
2022-09-21T01:53:33.503Z,36.90
2022-09-21T01:54:07.437Z,36.43
2022-09-21T01:54:49.563Z,36.50
2022-09-21T01:55:23.320Z,36.29
2022-09-21T01:56:06.812Z,36.71
2022-09-21T01:56:41.598Z,36.11
2022-09-21T01:57:23.673Z,36.34
2022-09-21T01:57:58.108Z,36.81
2022-09-21T01:58:34.240Z,36.36
2022-09-21T01:59:17.095Z,36.27
2022-09-21T01:59:55.658Z,36.26
2022-09-21T02:00:27.316Z,36.55
2022-09-21T02:00:58.965Z,36.31
2022-09-21T02:01:30.651Z,36.54
2022-09-21T02:02:04.858Z,36.49
2022-09-21T02:02:47.986Z,36.61
2022-09-21T02:03:38.922Z,36.90
2022-09-21T02:04:11.288Z,36.54
2022-09-21T02:04:43.043Z,36.28
2022-09-21T02:05:14.649Z,36.33
2022-09-21T02:05:46.181Z,36.53
2022-09-21T02:06:18.019Z,36.14
2022-09-21T02:06:49.584Z,36.31
2022-09-21T02:07:21.123Z,36.23
2022-09-21T02:07:52.663Z,35.98
2022-09-21T02:08:24.501Z,36.15
2022-09-21T02:08:56.077Z,36.45
2022-09-21T02:09:27.677Z,36.13
2022-09-21T02:09:59.778Z,36.31
2022-09-21T02:10:39.342Z,36.37
2022-09-21T02:11:10.948Z,36.49
2022-09-21T02:11:42.680Z,36.30
2022-09-21T02:12:18.745Z,36.55
2022-09-21T02:12:53.170Z,36.34
2022-09-21T02:13:24.788Z,36.42
2022-09-21T02:13:56.364Z,36.41
2022-09-21T02:14:28.040Z,36.49
2022-09-21T02:14:59.549Z,36.57
2022-09-21T02:15:46.471Z,35.98
2022-09-21T02:16:26.700Z,35.74
2022-09-21T02:17:17.191Z,36.23
2022-09-21T02:17:54.189Z,36.60
2022-09-21T02:18:33.784Z,36.26
2022-09-21T02:19:08.364Z,36.57
2022-09-21T02:19:39.869Z,36.38
2022-09-21T02:20:11.376Z,36.47
2022-09-21T02:20:45.992Z,36.18
2022-09-21T02:21:23.337Z,36.13
2022-09-21T02:22:12.047Z,35.96
2022-09-21T02:22:46.248Z,36.09
2022-09-21T02:23:24.403Z,35.95
2022-09-21T02:23:58.644Z,36.12
2022-09-21T02:24:43.570Z,36.01
2022-09-21T02:25:29.930Z,36.29
2022-09-21T02:26:10.378Z,36.18
2022-09-21T02:26:53.504Z,36.26
2022-09-21T02:27:31.023Z,36.35
2022-09-21T02:28:06.829Z,35.78
2022-09-21T02:28:49.362Z,35.87
2022-09-21T02:29:23.626Z,36.48
2022-09-21T02:30:00.996Z,36.54
2022-09-21T02:30:33.039Z,36.15
2022-09-21T02:31:33.668Z,36.22
2022-09-21T02:32:06.648Z,36.05
2022-09-21T02:32:44.218Z,36.27
2022-09-21T02:33:20.173Z,36.21
2022-09-21T02:33:57.012Z,36.08
2022-09-21T02:34:36.163Z,36.15
2022-09-21T02:35:15.561Z,36.40
2022-09-21T02:35:51.002Z,36.44
2022-09-21T02:36:25.020Z,36.18
2022-09-21T02:36:58.576Z,36.00
2022-09-21T02:37:35.671Z,35.93
2022-09-21T02:38:09.034Z,36.23
2022-09-21T02:38:44.499Z,35.83
2022-09-21T02:39:16.748Z,36.19
2022-09-21T02:39:52.955Z,36.19
2022-09-21T02:40:31.492Z,35.58
2022-09-21T02:41:08.682Z,35.95
2022-09-21T02:41:45.254Z,35.87
2022-09-21T02:42:17.336Z,35.96
2022-09-21T02:42:48.903Z,36.19
2022-09-21T02:43:23.307Z,35.67
2022-09-21T02:44:11.934Z,35.97
2022-09-21T02:44:52.622Z,36.08
2022-09-21T02:45:27.706Z,36.29
2022-09-21T02:46:00.285Z,35.82
2022-09-21T02:46:31.890Z,35.69
2022-09-21T02:47:03.623Z,35.60
2022-09-21T02:47:36.954Z,35.73
2022-09-21T02:48:09.622Z,35.74
2022-09-21T02:48:43.359Z,35.85
2022-09-21T02:49:18.161Z,35.85
2022-09-21T02:49:51.645Z,35.96
2022-09-21T02:50:24.308Z,35.73
2022-09-21T02:50:56.988Z,36.24
2022-09-21T02:51:32.110Z,35.76
2022-09-21T02:52:05.350Z,35.57
2022-09-21T02:52:36.923Z,35.96
2022-09-21T02:53:09.055Z,35.80
2022-09-21T02:53:40.577Z,36.03
2022-09-21T02:54:12.125Z,36.10
2022-09-21T02:54:44.606Z,35.71
2022-09-21T02:55:16.327Z,35.88
2022-09-21T02:55:47.921Z,35.62
2022-09-21T02:56:19.490Z,35.86
2022-09-21T02:56:51.008Z,35.95
2022-09-21T02:57:22.720Z,35.81
2022-09-21T02:57:54.357Z,35.38
2022-09-21T02:58:26.166Z,35.71
2022-09-21T02:58:58.842Z,36.00
2022-09-21T02:59:30.466Z,35.79
2022-09-21T03:00:02.151Z,35.95
2022-09-21T03:00:34.731Z,35.87
2022-09-21T03:01:07.024Z,35.88
2022-09-21T03:01:39.061Z,35.91
2022-09-21T03:02:10.988Z,35.72
2022-09-21T03:02:43.380Z,35.77
2022-09-21T03:03:21.706Z,35.55
2022-09-21T03:03:53.358Z,35.90
2022-09-21T03:04:24.902Z,35.51
2022-09-21T03:04:56.448Z,35.91
2022-09-21T03:05:28.008Z,35.82
2022-09-21T03:05:59.579Z,35.80
2022-09-21T03:06:31.069Z,35.81
2022-09-21T03:07:02.713Z,35.97
2022-09-21T03:07:34.273Z,35.42
2022-09-21T03:08:05.801Z,35.37
2022-09-21T03:08:37.356Z,35.59
2022-09-21T03:09:09.043Z,35.51
2022-09-21T03:09:40.586Z,35.80
2022-09-21T03:10:12.185Z,35.55
2022-09-21T03:10:43.882Z,35.23
2022-09-21T03:11:18.811Z,35.76
2022-09-21T03:11:53.041Z,35.42
2022-09-21T03:12:24.550Z,35.38
2022-09-21T03:12:58.658Z,35.81
2022-09-21T03:13:30.295Z,35.49
2022-09-21T03:14:02.210Z,35.22
2022-09-21T03:14:33.962Z,35.65
2022-09-21T03:15:05.842Z,35.81
2022-09-21T03:15:37.847Z,35.35
2022-09-21T03:16:09.568Z,35.41
2022-09-21T03:16:41.124Z,35.40
2022-09-21T03:17:12.638Z,35.64
2022-09-21T03:17:44.226Z,35.74
2022-09-21T03:18:15.691Z,35.55
2022-09-21T03:18:47.311Z,35.40
2022-09-21T03:19:18.831Z,35.58
2022-09-21T03:19:50.367Z,35.64
2022-09-21T03:20:21.966Z,35.47
2022-09-21T03:20:53.509Z,35.62
2022-09-21T03:21:25.132Z,35.42
2022-09-21T03:21:56.673Z,35.56
2022-09-21T03:22:28.345Z,35.54
2022-09-21T03:23:00.065Z,35.20
2022-09-21T03:23:31.692Z,35.21
2022-09-21T03:24:03.256Z,35.76
2022-09-21T03:24:34.733Z,35.34
2022-09-21T03:25:06.514Z,35.42
2022-09-21T03:25:38.138Z,35.60
2022-09-21T03:26:09.624Z,35.60
2022-09-21T03:26:41.213Z,35.32
2022-09-21T03:27:15.034Z,35.45
2022-09-21T03:27:46.638Z,34.97
2022-09-21T03:28:18.279Z,35.52
2022-09-21T03:28:50.107Z,35.20
2022-09-21T03:29:21.713Z,35.48
2022-09-21T03:29:53.277Z,35.21
2022-09-21T03:30:25.243Z,35.39
2022-09-21T03:30:56.778Z,35.11
2022-09-21T03:31:28.352Z,35.11
2022-09-21T03:31:59.899Z,35.55
2022-09-21T03:32:31.431Z,35.56
2022-09-21T03:33:02.953Z,35.18
2022-09-21T03:33:34.496Z,35.04
2022-09-21T03:34:05.968Z,35.35
2022-09-21T03:34:37.451Z,35.28
2022-09-21T03:35:09.169Z,35.22
2022-09-21T03:35:40.978Z,35.06
2022-09-21T03:36:12.493Z,35.32
2022-09-21T03:36:44.202Z,35.38
2022-09-21T03:37:15.669Z,35.19
2022-09-21T03:37:47.319Z,35.63
2022-09-21T03:38:19.198Z,35.06
2022-09-21T03:38:50.702Z,35.41
2022-09-21T03:39:22.248Z,35.25
2022-09-21T03:39:53.798Z,34.95
2022-09-21T03:40:25.378Z,35.44
2022-09-21T03:40:56.989Z,35.17
2022-09-21T03:41:28.504Z,34.97
2022-09-21T03:42:00.086Z,35.43
2022-09-21T03:42:31.712Z,35.47
2022-09-21T03:43:03.275Z,35.27
2022-09-21T03:43:34.849Z,34.63
2022-09-21T03:44:06.429Z,34.81
2022-09-21T03:44:37.942Z,35.35
2022-09-21T03:45:09.828Z,35.46
2022-09-21T03:45:41.572Z,35.40
2022-09-21T03:46:13.255Z,35.28
2022-09-21T03:46:44.865Z,35.19
2022-09-21T03:47:16.409Z,35.20
2022-09-21T03:47:48.123Z,35.23
2022-09-21T03:48:19.665Z,34.91
2022-09-21T03:48:51.199Z,35.37
2022-09-21T03:49:22.760Z,35.09
2022-09-21T03:49:54.262Z,35.18
2022-09-21T03:50:26.100Z,35.19
2022-09-21T03:50:57.604Z,34.85
2022-09-21T03:51:29.355Z,34.92
2022-09-21T03:52:00.964Z,35.26
2022-09-21T03:52:32.536Z,35.04
2022-09-21T03:53:04.148Z,34.78
2022-09-21T03:53:35.672Z,34.96
2022-09-21T03:54:07.199Z,35.12
2022-09-21T03:54:38.794Z,35.07
2022-09-21T03:55:10.451Z,35.13
2022-09-21T03:55:42.109Z,34.87
2022-09-21T03:56:13.645Z,35.00
2022-09-21T03:56:45.221Z,35.17
2022-09-21T03:57:16.814Z,34.60
2022-09-21T03:57:48.450Z,34.69
2022-09-21T03:58:20.048Z,34.83
2022-09-21T03:58:51.683Z,34.98
2022-09-21T03:59:23.219Z,34.92
2022-09-21T03:59:54.795Z,34.71
2022-09-21T04:00:26.337Z,34.94
2022-09-21T04:01:01.230Z,34.60
2022-09-21T04:01:32.723Z,34.70
2022-09-21T04:02:04.424Z,35.22
2022-09-21T04:02:36.574Z,34.99
2022-09-21T04:03:08.234Z,35.39
2022-09-21T04:03:39.765Z,35.29
2022-09-21T04:04:11.315Z,35.10
2022-09-21T04:04:42.881Z,34.98
2022-09-21T04:05:14.801Z,35.30
2022-09-21T04:05:46.306Z,35.06
2022-09-21T04:06:17.919Z,34.91
2022-09-21T04:06:49.555Z,35.06
2022-09-21T04:07:21.102Z,34.92
2022-09-21T04:07:52.975Z,34.82
2022-09-21T04:08:24.583Z,34.45
2022-09-21T04:08:56.145Z,34.85
2022-09-21T04:09:27.709Z,34.91
2022-09-21T04:09:59.203Z,34.57
2022-09-21T04:10:30.832Z,34.95
2022-09-21T04:11:02.343Z,34.65
2022-09-21T04:11:34.088Z,34.55
2022-09-21T04:12:05.718Z,35.00
2022-09-21T04:12:37.314Z,34.78
2022-09-21T04:13:09.048Z,34.63
2022-09-21T04:13:40.580Z,34.59
2022-09-21T04:14:12.446Z,34.97
2022-09-21T04:14:43.952Z,34.79
2022-09-21T04:15:16.348Z,34.85
2022-09-21T04:15:47.977Z,34.82
2022-09-21T04:16:19.500Z,34.80
2022-09-21T04:16:51.103Z,34.66
2022-09-21T04:17:22.830Z,34.57
2022-09-21T04:17:54.582Z,34.60
2022-09-21T04:18:26.158Z,34.63
2022-09-21T04:18:57.668Z,34.75
2022-09-21T04:19:29.320Z,34.64
2022-09-21T04:20:01.022Z,34.86
2022-09-21T04:20:32.607Z,34.51
2022-09-21T04:21:04.758Z,34.35
2022-09-21T04:21:36.399Z,34.50
2022-09-21T04:22:08.305Z,34.55
2022-09-21T04:22:43.301Z,34.93
2022-09-21T04:23:15.369Z,34.72
2022-09-21T04:23:46.961Z,34.57
2022-09-21T04:24:18.579Z,34.18
2022-09-21T04:24:50.221Z,34.13
2022-09-21T04:25:21.839Z,34.53
2022-09-21T04:25:53.748Z,34.51
2022-09-21T04:26:26.196Z,34.66
2022-09-21T04:26:57.807Z,34.37
2022-09-21T04:27:29.364Z,34.18
2022-09-21T04:28:01.008Z,34.39
2022-09-21T04:28:32.491Z,34.61
2022-09-21T04:29:04.125Z,34.60
2022-09-21T04:29:35.697Z,34.30
2022-09-21T04:30:07.533Z,34.34
2022-09-21T04:30:39.081Z,34.64
2022-09-21T04:31:10.716Z,34.62
2022-09-21T04:31:42.430Z,34.68
2022-09-21T04:32:14.124Z,34.40
2022-09-21T04:32:45.816Z,34.60
2022-09-21T04:33:17.390Z,34.16
2022-09-21T04:33:49.550Z,34.44
2022-09-21T04:34:21.183Z,34.35
2022-09-21T04:34:52.807Z,34.23
2022-09-21T04:35:24.385Z,34.46
2022-09-21T04:35:56.056Z,34.38
2022-09-21T04:36:28.104Z,34.06
2022-09-21T04:36:59.679Z,34.46
2022-09-21T04:37:31.179Z,34.40
2022-09-21T04:38:02.722Z,34.39
2022-09-21T04:38:34.260Z,34.39
2022-09-21T04:39:05.843Z,34.31
2022-09-21T04:39:37.421Z,34.46
2022-09-21T04:40:09.150Z,34.48
2022-09-21T04:40:40.801Z,34.21
2022-09-21T04:41:12.464Z,34.08
2022-09-21T04:41:43.957Z,34.32
2022-09-21T04:42:15.558Z,34.28
2022-09-21T04:42:50.675Z,34.61
2022-09-21T04:43:22.749Z,34.35
2022-09-21T04:43:54.436Z,34.13
2022-09-21T04:44:26.195Z,34.56
2022-09-21T04:44:57.725Z,34.24
2022-09-21T04:45:29.328Z,34.41
2022-09-21T04:46:07.551Z,34.24
2022-09-21T04:46:39.101Z,34.39
2022-09-21T04:47:10.634Z,34.29
2022-09-21T04:47:42.169Z,34.23
2022-09-21T04:48:13.826Z,34.42
2022-09-21T04:48:45.477Z,34.29
2022-09-21T04:49:16.990Z,34.51
2022-09-21T04:49:48.552Z,34.13
2022-09-21T04:50:20.096Z,34.37
2022-09-21T04:50:51.666Z,34.46
2022-09-21T04:51:23.255Z,34.52
2022-09-21T04:51:54.838Z,34.53
2022-09-21T04:52:26.343Z,34.33
2022-09-21T04:52:57.951Z,34.38
2022-09-21T04:53:29.889Z,34.38
2022-09-21T04:54:01.608Z,34.08
2022-09-21T04:54:33.131Z,34.54
2022-09-21T04:55:04.922Z,34.02
2022-09-21T04:55:36.508Z,34.14
2022-09-21T04:56:08.276Z,34.53
2022-09-21T04:56:39.816Z,34.26
2022-09-21T04:57:11.458Z,34.10
2022-09-21T04:57:42.940Z,34.34
2022-09-21T04:58:14.456Z,33.89
2022-09-21T04:58:45.945Z,34.22
2022-09-21T04:59:17.487Z,33.75
2022-09-21T04:59:48.990Z,34.07
2022-09-21T05:00:20.552Z,34.04
2022-09-21T05:00:52.453Z,33.94
2022-09-21T05:01:24.054Z,33.92
2022-09-21T05:01:55.644Z,34.02
2022-09-21T05:02:27.184Z,34.05
2022-09-21T05:02:58.715Z,33.86
2022-09-21T05:03:30.394Z,33.94
2022-09-21T05:04:02.074Z,33.96
2022-09-21T05:04:33.662Z,33.84
2022-09-21T05:05:05.552Z,34.31
2022-09-21T05:05:37.071Z,33.92
2022-09-21T05:06:08.732Z,34.23
2022-09-21T05:06:40.301Z,34.41
2022-09-21T05:07:11.901Z,34.11
2022-09-21T05:07:43.485Z,33.70
2022-09-21T05:08:15.281Z,33.96
2022-09-21T05:08:46.759Z,34.07
2022-09-21T05:09:18.374Z,33.91
2022-09-21T05:09:49.927Z,33.89
2022-09-21T05:10:21.441Z,33.87
2022-09-21T05:10:53.088Z,34.04
2022-09-21T05:11:24.769Z,33.97
2022-09-21T05:11:56.272Z,34.08
2022-09-21T05:12:27.914Z,34.17
2022-09-21T05:12:59.465Z,33.89
2022-09-21T05:13:30.994Z,33.91
2022-09-21T05:14:02.676Z,33.99
2022-09-21T05:14:34.156Z,33.77
2022-09-21T05:15:06.097Z,33.63
2022-09-21T05:15:38.006Z,33.88
2022-09-21T05:16:09.690Z,33.99
2022-09-21T05:16:41.284Z,33.61
2022-09-21T05:17:12.861Z,33.74
2022-09-21T05:17:44.469Z,33.54
2022-09-21T05:18:16.060Z,33.96
2022-09-21T05:18:47.621Z,33.96
2022-09-21T05:19:19.272Z,34.09
2022-09-21T05:19:50.943Z,33.81
2022-09-21T05:20:22.483Z,34.09
2022-09-21T05:20:57.191Z,33.86
2022-09-21T05:21:28.829Z,33.61
2022-09-21T05:22:00.370Z,33.84
2022-09-21T05:22:31.932Z,33.96
2022-09-21T05:23:03.619Z,33.93
2022-09-21T05:23:35.544Z,33.89
2022-09-21T05:24:07.108Z,33.81
2022-09-21T05:24:38.657Z,33.90
2022-09-21T05:25:10.294Z,33.66
2022-09-21T05:25:41.799Z,33.66
2022-09-21T05:26:13.576Z,34.09
2022-09-21T05:26:45.135Z,33.79
2022-09-21T05:27:16.844Z,34.26
2022-09-21T05:27:48.477Z,33.96
2022-09-21T05:28:20.128Z,33.71
2022-09-21T05:28:51.795Z,33.70
2022-09-21T05:29:23.554Z,33.97
2022-09-21T05:29:55.187Z,33.97
2022-09-21T05:30:26.933Z,34.17
2022-09-21T05:31:16.652Z,33.65
2022-09-21T05:31:51.876Z,33.50
2022-09-21T05:32:41.804Z,33.80
2022-09-21T05:33:13.991Z,33.81
2022-09-21T05:33:55.105Z,33.73
2022-09-21T05:34:37.738Z,33.69
2022-09-21T05:35:29.603Z,33.60
2022-09-21T05:36:07.182Z,33.67
2022-09-21T05:36:41.634Z,33.84
2022-09-21T05:37:24.934Z,33.63
2022-09-21T05:38:13.121Z,33.66
2022-09-21T05:38:44.881Z,33.41
2022-09-21T05:39:16.565Z,33.56
2022-09-21T05:39:48.255Z,33.38
2022-09-21T05:40:20.177Z,33.78
2022-09-21T05:40:51.871Z,33.32
2022-09-21T05:41:23.597Z,33.47
2022-09-21T05:41:55.245Z,33.79
2022-09-21T05:42:27.036Z,33.57
2022-09-21T05:42:58.717Z,33.66
2022-09-21T05:43:30.551Z,33.56
2022-09-21T05:44:02.380Z,33.68
2022-09-21T05:44:34.284Z,33.59
2022-09-21T05:45:06.219Z,33.75
2022-09-21T05:45:38.080Z,33.60
2022-09-21T05:46:18.291Z,33.53
2022-09-21T05:46:53.954Z,33.64
2022-09-21T05:47:37.683Z,33.58
2022-09-21T05:48:19.394Z,33.16
2022-09-21T05:49:00.664Z,33.82
2022-09-21T05:49:50.886Z,33.83
2022-09-21T05:50:31.262Z,33.68
2022-09-21T05:51:04.071Z,34.07
2022-09-21T05:52:07.963Z,34.07
2022-09-21T05:52:48.031Z,33.71
2022-09-21T05:53:23.268Z,33.91
2022-09-21T05:54:12.385Z,34.02
2022-09-21T05:54:51.062Z,33.43
2022-09-21T05:55:30.682Z,33.55
2022-09-21T05:56:07.259Z,33.67
2022-09-21T05:56:42.572Z,33.66
2022-09-21T05:57:19.951Z,33.64
2022-09-21T05:57:55.540Z,33.79
2022-09-21T05:58:36.234Z,33.48
2022-09-21T05:59:16.519Z,33.95
2022-09-21T05:59:57.674Z,34.36
2022-09-21T06:00:31.318Z,33.82
2022-09-21T06:01:21.184Z,33.93
2022-09-21T06:01:57.654Z,33.88
2022-09-21T06:02:29.175Z,33.86
2022-09-21T06:03:20.513Z,33.73
2022-09-21T06:03:52.059Z,34.24
2022-09-21T06:04:23.745Z,33.81
2022-09-21T06:04:56.418Z,33.91
2022-09-21T06:05:28.001Z,33.81
2022-09-21T06:05:59.422Z,33.91
2022-09-21T06:06:30.908Z,33.72
2022-09-21T06:07:02.535Z,33.87
2022-09-21T06:07:34.070Z,34.06
2022-09-21T06:08:05.527Z,34.15
2022-09-21T06:08:36.982Z,33.97
2022-09-21T06:09:08.574Z,34.30
2022-09-21T06:09:43.038Z,34.29
2022-09-21T06:10:15.002Z,34.18
2022-09-21T06:10:46.568Z,34.09
2022-09-21T06:11:18.267Z,34.07
2022-09-21T06:11:49.729Z,34.13
2022-09-21T06:12:21.344Z,33.79
2022-09-21T06:12:52.881Z,33.78
2022-09-21T06:13:24.466Z,33.67
2022-09-21T06:13:56.045Z,34.03
2022-09-21T06:14:27.562Z,34.13
2022-09-21T06:14:59.081Z,34.14
2022-09-21T06:15:30.799Z,33.85
2022-09-21T06:16:02.688Z,33.83
2022-09-21T06:16:40.614Z,34.15
2022-09-21T06:17:12.307Z,34.28
2022-09-21T06:17:43.915Z,34.24
2022-09-21T06:18:17.991Z,34.17
2022-09-21T06:18:49.945Z,33.97
2022-09-21T06:19:21.550Z,34.45
2022-09-21T06:19:53.478Z,34.19
2022-09-21T06:20:25.121Z,34.07
2022-09-21T06:20:56.671Z,33.85
2022-09-21T06:21:28.211Z,33.97
2022-09-21T06:21:59.792Z,34.20
2022-09-21T06:22:31.442Z,34.15
2022-09-21T06:23:06.513Z,34.32
2022-09-21T06:23:38.264Z,34.22
2022-09-21T06:24:10.258Z,34.16
2022-09-21T06:24:41.767Z,33.84
2022-09-21T06:25:13.420Z,34.09
2022-09-21T06:25:44.991Z,33.84
2022-09-21T06:26:16.624Z,34.20
2022-09-21T06:26:48.235Z,34.06
2022-09-21T06:27:19.712Z,34.45
2022-09-21T06:27:51.185Z,34.30
2022-09-21T06:28:22.822Z,34.02
2022-09-21T06:28:54.419Z,34.42
2022-09-21T06:29:25.931Z,34.31
2022-09-21T06:29:57.542Z,33.98
2022-09-21T06:30:29.063Z,33.80
2022-09-21T06:31:00.693Z,33.98
2022-09-21T06:31:32.603Z,34.18
2022-09-21T06:32:04.474Z,34.19
2022-09-21T06:32:36.060Z,34.28
2022-09-21T06:33:07.754Z,34.19
2022-09-21T06:33:39.296Z,34.04
2022-09-21T06:34:10.890Z,34.30
2022-09-21T06:34:42.474Z,34.04
2022-09-21T06:35:14.062Z,34.28
2022-09-21T06:35:49.042Z,34.03
2022-09-21T06:36:20.595Z,33.85
2022-09-21T06:36:52.101Z,34.01
2022-09-21T06:37:23.638Z,33.88
2022-09-21T06:38:00.275Z,34.21
2022-09-21T06:38:31.867Z,33.93
2022-09-21T06:39:03.571Z,33.93
2022-09-21T06:39:35.201Z,33.95
2022-09-21T06:40:07.198Z,34.03
2022-09-21T06:40:38.858Z,33.90
2022-09-21T06:41:10.455Z,34.09
2022-09-21T06:41:42.148Z,33.94
2022-09-21T06:42:13.679Z,34.16
2022-09-21T06:42:45.258Z,34.27
2022-09-21T06:43:16.999Z,34.04
2022-09-21T06:43:48.715Z,34.05
2022-09-21T06:44:20.512Z,34.14
2022-09-21T06:44:52.341Z,34.04
2022-09-21T06:45:24.023Z,34.26
2022-09-21T06:45:56.008Z,34.30
2022-09-21T06:46:27.680Z,34.06
2022-09-21T06:46:59.203Z,34.13
2022-09-21T06:47:30.814Z,34.24
2022-09-21T06:48:02.518Z,34.31
2022-09-21T06:48:34.281Z,34.56
2022-09-21T06:49:05.785Z,34.17
2022-09-21T06:49:42.239Z,34.20
2022-09-21T06:50:14.170Z,34.21
2022-09-21T06:50:45.694Z,34.32
2022-09-21T06:51:17.240Z,33.86
2022-09-21T06:51:48.808Z,34.05
2022-09-21T06:52:20.324Z,34.01
2022-09-21T06:52:51.846Z,34.10
2022-09-21T06:53:23.378Z,33.82
2022-09-21T06:53:55.526Z,34.18
2022-09-21T06:54:27.042Z,34.12
2022-09-21T06:54:58.532Z,34.15
2022-09-21T06:55:30.974Z,33.91
2022-09-21T06:56:06.267Z,33.93
2022-09-21T06:56:37.845Z,33.60
2022-09-21T06:57:09.434Z,34.15
2022-09-21T06:57:41.179Z,34.25
2022-09-21T06:58:12.694Z,34.32
2022-09-21T06:58:44.206Z,34.03
2022-09-21T06:59:15.734Z,34.44
2022-09-21T06:59:47.261Z,34.03
2022-09-21T07:00:18.884Z,33.95
2022-09-21T07:00:50.478Z,34.08
2022-09-21T07:01:22.171Z,34.11
2022-09-21T07:01:53.865Z,34.04
2022-09-21T07:02:25.434Z,34.10
2022-09-21T07:02:57.021Z,34.42
2022-09-21T07:03:28.604Z,34.08
2022-09-21T07:04:00.238Z,34.05
2022-09-21T07:04:31.823Z,33.91
2022-09-21T07:05:03.813Z,34.06
2022-09-21T07:05:35.375Z,34.22
2022-09-21T07:06:07.016Z,33.90
2022-09-21T07:06:38.646Z,34.14
2022-09-21T07:07:10.219Z,34.19
2022-09-21T07:07:41.864Z,33.84
2022-09-21T07:10:15.843Z,33.89
2022-09-21T07:10:47.981Z,33.99
2022-09-21T07:11:19.658Z,33.92
2022-09-21T07:11:51.166Z,34.08
2022-09-21T07:12:22.721Z,33.76